createdAt,value
2017-04-25T00:00:21.484Z,8.62
2017-04-25T00:01:20.578Z,9.77
2017-04-25T00:02:19.696Z,9.90
2017-04-25T00:03:18.815Z,13.65
2017-04-25T00:04:17.916Z,8.28
2017-04-25T00:05:17.028Z,17.30
2017-04-25T00:06:16.865Z,13.02
2017-04-25T00:07:16.036Z,14.32
2017-04-25T00:08:15.166Z,9.92
2017-04-25T00:09:15.076Z,12.20
2017-04-25T00:10:14.943Z,9.68
2017-04-25T00:11:14.026Z,8.33
2017-04-25T00:12:13.095Z,12.33
2017-04-25T00:13:12.184Z,10.95
2017-04-25T00:14:11.200Z,9.80
2017-04-25T00:15:10.432Z,9.05
2017-04-25T00:16:09.448Z,12.05
2017-04-25T00:17:09.357Z,9.88
2017-04-25T00:18:08.547Z,13.08
2017-04-25T00:19:07.832Z,8.80
2017-04-25T00:20:06.867Z,10.20
2017-04-25T00:21:06.021Z,12.38
2017-04-25T00:22:05.158Z,10.65
2017-04-25T00:23:04.225Z,9.35
2017-04-25T00:24:03.416Z,9.97
2017-04-25T00:25:03.335Z,7.62
2017-04-25T00:26:02.788Z,10.20
2017-04-25T00:27:03.585Z,11.62
2017-04-25T00:28:03.371Z,10.18
2017-04-25T00:29:03.096Z,13.42
2017-04-25T00:30:02.681Z,9.87
2017-04-25T00:31:02.212Z,10.03
2017-04-25T00:32:02.048Z,9.52
2017-04-25T00:33:01.615Z,10.97
2017-04-25T00:34:01.252Z,14.52
2017-04-25T00:35:01.435Z,11.63
2017-04-25T00:36:01.119Z,12.48
2017-04-25T00:37:00.851Z,10.58
2017-04-25T00:38:01.402Z,9.15
2017-04-25T00:39:00.876Z,12.03
2017-04-25T00:40:00.648Z,12.18
2017-04-25T00:41:01.130Z,11.80
2017-04-25T00:42:00.926Z,14.70
2017-04-25T00:43:01.375Z,13.28
2017-04-25T00:44:01.051Z,11.23
2017-04-25T00:45:00.941Z,9.67
2017-04-25T00:46:00.627Z,10.73
2017-04-25T00:46:59.752Z,11.18
2017-04-25T00:47:58.876Z,11.48
2017-04-25T00:48:57.920Z,11.48
2017-04-25T00:49:57.069Z,11.32
2017-04-25T00:50:56.215Z,13.43
2017-04-25T00:51:55.404Z,10.90
2017-04-25T00:52:54.552Z,14.87
2017-04-25T00:53:53.631Z,9.98
2017-04-25T00:54:52.724Z,13.20
2017-04-25T00:55:51.863Z,10.93
2017-04-25T00:56:50.990Z,11.82
2017-04-25T00:57:50.088Z,13.53
2017-04-25T00:58:49.168Z,11.13
2017-04-25T00:59:48.992Z,10.03
2017-04-25T01:00:48.111Z,9.88
2017-04-25T01:01:47.248Z,15.07
2017-04-25T01:02:46.391Z,9.35
2017-04-25T01:03:45.520Z,10.35
2017-04-25T01:04:44.732Z,12.35
2017-04-25T01:05:43.892Z,11.05
2017-04-25T01:06:42.998Z,11.05
2017-04-25T01:07:42.148Z,13.90
2017-04-25T01:08:41.232Z,14.08
2017-04-25T01:09:40.299Z,12.03
2017-04-25T01:10:39.351Z,13.78
2017-04-25T01:11:39.080Z,9.00
2017-04-25T01:12:38.136Z,15.32
2017-04-25T01:13:37.208Z,13.25
2017-04-25T01:14:37.006Z,11.57
2017-04-25T01:15:36.945Z,11.38
2017-04-25T01:16:36.152Z,11.10
2017-04-25T01:17:35.236Z,13.13
2017-04-25T01:18:34.501Z,12.68
2017-04-25T01:19:33.583Z,12.50
2017-04-25T01:20:33.639Z,13.33
2017-04-25T01:21:33.479Z,9.48
2017-04-25T01:22:33.108Z,12.02
2017-04-25T01:23:33.977Z,10.52
2017-04-25T01:24:33.583Z,10.17
2017-04-25T01:25:33.210Z,12.00
2017-04-25T01:26:33.268Z,10.13
2017-04-25T01:27:32.745Z,14.95
2017-04-25T01:28:32.327Z,13.22
2017-04-25T01:29:32.595Z,18.07
2017-04-25T01:30:33.089Z,13.67
2017-04-25T01:31:32.164Z,14.02
2017-04-25T01:32:31.879Z,11.60
2017-04-25T01:33:32.236Z,15.80
2017-04-25T01:34:31.896Z,13.78
2017-04-25T01:35:32.129Z,11.08
2017-04-25T01:36:31.796Z,9.63
2017-04-25T01:37:30.899Z,12.07
2017-04-25T01:38:30.409Z,8.63
2017-04-25T01:39:29.523Z,10.40
2017-04-25T01:40:28.684Z,15.03
2017-04-25T01:41:27.782Z,11.57
2017-04-25T01:42:27.595Z,10.80
2017-04-25T01:43:26.788Z,11.28
2017-04-25T01:44:25.864Z,15.50
2017-04-25T01:45:25.033Z,12.37
2017-04-25T01:46:25.284Z,13.57
2017-04-25T01:47:25.229Z,12.43
2017-04-25T01:48:25.617Z,10.62
2017-04-25T01:49:24.792Z,14.57
2017-04-25T01:50:23.975Z,10.40
2017-04-25T01:51:23.120Z,9.48
2017-04-25T01:52:22.320Z,12.15
2017-04-25T01:53:21.383Z,12.38
2017-04-25T01:54:20.498Z,12.07
2017-04-25T01:55:19.653Z,8.48
2017-04-25T01:56:18.898Z,11.83
2017-04-25T01:57:17.911Z,12.50
2017-04-25T01:58:16.956Z,11.78
2017-04-25T01:59:16.791Z,14.23
2017-04-25T02:00:15.922Z,14.90
2017-04-25T02:01:15.133Z,10.75
2017-04-25T02:02:14.238Z,11.80
2017-04-25T02:03:13.328Z,10.45
2017-04-25T02:04:12.403Z,13.67
2017-04-25T02:05:11.511Z,9.97
2017-04-25T02:06:11.372Z,9.07
2017-04-25T02:07:10.589Z,13.50
2017-04-25T02:08:10.440Z,12.92
2017-04-25T02:09:09.551Z,11.60
2017-04-25T02:10:08.631Z,11.47
2017-04-25T02:11:07.729Z,11.57
2017-04-25T02:12:07.544Z,10.77
2017-04-25T02:13:06.643Z,12.35
2017-04-25T02:14:05.748Z,11.05
2017-04-25T02:15:04.840Z,10.92
2017-04-25T02:16:04.695Z,11.77
2017-04-25T02:17:03.756Z,11.90
2017-04-25T02:18:03.043Z,14.83
2017-04-25T02:19:02.219Z,9.60
2017-04-25T02:20:01.990Z,9.57
2017-04-25T02:21:02.368Z,11.10
2017-04-25T02:22:01.983Z,12.22
2017-04-25T02:23:02.796Z,18.02
2017-04-25T02:24:02.212Z,11.25
2017-04-25T02:25:02.732Z,15.48
2017-04-25T02:26:02.227Z,7.68
2017-04-25T02:27:01.948Z,11.72
2017-04-25T02:28:01.444Z,16.37
2017-04-25T02:29:00.834Z,12.00
2017-04-25T02:29:59.951Z,10.07
2017-04-25T02:30:59.721Z,12.98
2017-04-25T02:31:58.864Z,11.80
2017-04-25T02:32:57.948Z,12.33
2017-04-25T02:33:57.060Z,11.77
2017-04-25T02:34:56.172Z,13.98
2017-04-25T02:35:55.263Z,11.53
2017-04-25T02:36:54.468Z,9.88
2017-04-25T02:37:53.563Z,11.70
2017-04-25T02:38:52.644Z,10.00
2017-04-25T02:39:51.769Z,13.02
2017-04-25T02:40:50.944Z,9.53
2017-04-25T02:41:50.835Z,11.68
2017-04-25T02:42:50.678Z,10.28
2017-04-25T02:43:49.780Z,11.37
2017-04-25T02:44:48.918Z,11.50
2017-04-25T02:45:48.018Z,9.98
2017-04-25T02:46:47.104Z,11.05
2017-04-25T02:47:46.168Z,13.65
2017-04-25T02:48:45.315Z,12.13
2017-04-25T02:49:44.380Z,13.25
2017-04-25T02:50:43.566Z,10.35
2017-04-25T02:51:42.680Z,12.28
2017-04-25T02:52:41.723Z,12.92
2017-04-25T02:53:41.550Z,11.02
2017-04-25T02:54:40.720Z,12.98
2017-04-25T02:55:39.794Z,21.95
2017-04-25T02:56:38.886Z,11.50
2017-04-25T02:57:37.936Z,12.43
2017-04-25T02:58:37.763Z,12.45
2017-04-25T02:59:36.831Z,12.50
2017-04-25T03:00:36.740Z,11.67
2017-04-25T03:01:35.896Z,12.23
2017-04-25T03:02:35.744Z,9.78
2017-04-25T03:03:34.872Z,15.22
2017-04-25T03:04:34.793Z,9.83
2017-04-25T03:05:33.871Z,10.55
2017-04-25T03:06:33.930Z,13.07
2017-04-25T03:07:34.054Z,11.12
2017-04-25T03:08:33.868Z,15.30
2017-04-25T03:09:33.827Z,7.90
2017-04-25T03:10:33.196Z,12.88
2017-04-25T03:11:33.325Z,11.45
2017-04-25T03:12:32.835Z,17.15
2017-04-25T03:13:33.308Z,11.18
2017-04-25T03:14:32.961Z,12.32
2017-04-25T03:15:32.656Z,11.83
2017-04-25T03:16:32.064Z,12.95
2017-04-25T03:17:31.916Z,11.38
2017-04-25T03:18:31.620Z,9.80
2017-04-25T03:19:31.382Z,8.93
2017-04-25T03:20:31.892Z,10.18
2017-04-25T03:21:32.279Z,16.15
2017-04-25T03:22:32.079Z,11.48
2017-04-25T03:23:31.740Z,17.95
2017-04-25T03:24:31.456Z,12.62
2017-04-25T03:25:30.800Z,13.48
2017-04-25T03:26:29.880Z,10.95
2017-04-25T03:27:29.002Z,16.85
2017-04-25T03:28:28.032Z,13.95
2017-04-25T03:29:27.104Z,11.95
2017-04-25T03:30:26.126Z,19.10
2017-04-25T03:31:25.272Z,8.10
2017-04-25T03:32:24.353Z,10.55
2017-04-25T03:33:23.485Z,12.62
2017-04-25T03:34:22.608Z,10.98
2017-04-25T03:35:21.637Z,12.53
2017-04-25T03:36:21.323Z,10.40
2017-04-25T03:37:20.439Z,11.55
2017-04-25T03:38:20.308Z,13.03
2017-04-25T03:39:19.384Z,9.55
2017-04-25T03:40:18.493Z,11.97
2017-04-25T03:41:18.235Z,18.08
2017-04-25T03:42:17.291Z,15.52
2017-04-25T03:43:16.434Z,12.12
2017-04-25T03:44:15.544Z,14.13
2017-04-25T03:45:14.727Z,8.98
2017-04-25T03:46:13.835Z,10.88
2017-04-25T03:47:12.983Z,13.80
2017-04-25T03:48:11.988Z,15.33
2017-04-25T03:49:10.956Z,12.13
2017-04-25T03:50:09.965Z,10.47
2017-04-25T03:51:09.188Z,9.35
2017-04-25T03:52:08.272Z,13.28
2017-04-25T03:53:07.381Z,10.65
2017-04-25T03:54:06.532Z,13.48
2017-04-25T03:55:05.723Z,13.97
2017-04-25T03:56:04.828Z,11.52
2017-04-25T03:57:04.700Z,10.73
2017-04-25T03:58:03.791Z,10.57
2017-04-25T03:59:03.191Z,10.83
2017-04-25T04:00:02.628Z,9.05
2017-04-25T04:01:03.088Z,9.48
2017-04-25T04:02:02.581Z,8.57
2017-04-25T04:03:02.520Z,11.52
2017-04-25T04:04:03.389Z,14.18
2017-04-25T04:05:03.033Z,10.90
2017-04-25T04:06:03.280Z,10.70
2017-04-25T04:07:02.796Z,9.93
2017-04-25T04:08:02.249Z,12.57
2017-04-25T04:09:01.932Z,11.82
2017-04-25T04:10:01.311Z,10.78
2017-04-25T04:11:00.940Z,10.25
2017-04-25T04:12:00.624Z,12.48
2017-04-25T04:12:59.697Z,11.50
2017-04-25T04:13:58.816Z,9.37
2017-04-25T04:14:57.880Z,12.67
2017-04-25T04:15:57.132Z,14.33
2017-04-25T04:16:59.588Z,12.82
2017-04-25T04:17:58.731Z,11.83
2017-04-25T04:18:58.560Z,12.32
2017-04-25T04:19:57.670Z,14.70
2017-04-25T04:20:56.798Z,12.73
2017-04-25T04:21:56.895Z,11.12
2017-04-25T04:22:56.675Z,9.57
2017-04-25T04:23:56.237Z,11.78
2017-04-25T04:24:55.357Z,15.53
2017-04-25T04:25:55.154Z,13.67
2017-04-25T04:26:55.015Z,17.05
2017-04-25T04:27:54.088Z,14.58
2017-04-25T04:28:53.243Z,13.65
2017-04-25T04:29:52.364Z,13.22
2017-04-25T04:30:51.519Z,9.03
2017-04-25T04:31:50.620Z,11.63
2017-04-25T04:32:49.769Z,11.65
2017-04-25T04:33:48.909Z,10.97
2017-04-25T04:34:48.119Z,9.93
2017-04-25T04:35:47.276Z,13.67
2017-04-25T04:36:46.311Z,10.55
2017-04-25T04:37:45.352Z,8.87
2017-04-25T04:38:44.477Z,10.27
2017-04-25T04:39:43.566Z,17.50
2017-04-25T04:40:42.632Z,12.03
2017-04-25T04:41:41.683Z,15.10
2017-04-25T04:42:40.829Z,10.88
2017-04-25T04:43:40.644Z,10.97
2017-04-25T04:44:39.773Z,9.12
2017-04-25T04:45:38.924Z,11.18
2017-04-25T04:46:38.008Z,13.13
2017-04-25T04:47:37.068Z,12.32
2017-04-25T04:48:36.169Z,14.57
2017-04-25T04:49:35.228Z,11.02
2017-04-25T04:50:34.270Z,13.03
2017-04-25T04:51:33.384Z,11.43
2017-04-25T04:52:33.020Z,15.93
2017-04-25T04:53:32.664Z,12.82
2017-04-25T04:54:32.119Z,12.72
2017-04-25T04:55:32.252Z,11.75
2017-04-25T04:56:32.119Z,11.05
2017-04-25T04:57:32.663Z,7.48
2017-04-25T04:58:31.944Z,14.43
2017-04-25T04:59:31.652Z,12.50
2017-04-25T05:00:31.272Z,8.23
2017-04-25T05:01:30.917Z,10.38
2017-04-25T05:02:29.970Z,9.40
2017-04-25T05:03:30.868Z,8.18
2017-04-25T05:04:30.008Z,6.68
2017-04-25T05:05:30.789Z,12.95
2017-04-25T05:06:30.984Z,9.78
2017-04-25T05:07:30.443Z,8.12
2017-04-25T05:08:29.642Z,6.63
2017-04-25T05:09:28.783Z,7.77
2017-04-25T05:10:27.848Z,8.55
2017-04-25T05:11:27.027Z,6.67
2017-04-25T05:12:26.042Z,9.98
2017-04-25T05:13:25.120Z,10.55
2017-04-25T05:14:24.235Z,9.32
2017-04-25T05:15:23.444Z,8.25
2017-04-25T05:16:22.561Z,7.92
2017-04-25T05:17:21.727Z,9.03
2017-04-25T05:18:20.831Z,6.90
2017-04-25T05:19:19.876Z,7.18
2017-04-25T05:20:19.045Z,8.60
2017-04-25T05:21:18.216Z,11.20
2017-04-25T05:22:17.296Z,6.72
2017-04-25T05:23:16.376Z,13.07
2017-04-25T05:24:15.454Z,11.20
2017-04-25T05:25:14.543Z,10.13
2017-04-25T05:26:13.639Z,11.55
2017-04-25T05:27:12.860Z,9.85
2017-04-25T05:28:12.024Z,10.10
2017-04-25T05:29:11.812Z,9.33
2017-04-25T05:30:10.863Z,7.15
2017-04-25T05:31:09.910Z,11.02
2017-04-25T05:32:08.998Z,14.60
2017-04-25T05:33:08.756Z,9.58
2017-04-25T05:34:07.829Z,7.90
2017-04-25T05:35:06.907Z,7.35
2017-04-25T05:36:06.459Z,7.53
2017-04-25T05:37:05.523Z,11.43
2017-04-25T05:38:04.721Z,9.30
2017-04-25T05:39:03.908Z,8.92
2017-04-25T05:40:03.757Z,12.03
2017-04-25T05:41:02.942Z,12.52
2017-04-25T05:42:03.420Z,8.92
2017-04-25T05:43:02.766Z,9.88
2017-04-25T05:44:02.459Z,8.02
2017-04-25T05:45:01.571Z,8.37
2017-04-25T05:46:01.004Z,7.30
2017-04-25T05:47:01.584Z,7.25
2017-04-25T05:48:01.218Z,8.17
2017-04-25T05:49:02.253Z,9.38
2017-04-25T05:50:02.082Z,11.92
2017-04-25T05:51:01.724Z,7.20
2017-04-25T05:52:01.588Z,7.32
2017-04-25T05:53:02.072Z,8.80
2017-04-25T05:54:01.656Z,7.98
2017-04-25T05:55:01.232Z,7.25
2017-04-25T05:56:00.887Z,7.05
2017-04-25T05:57:00.052Z,8.20
2017-04-25T05:57:59.396Z,13.85
2017-04-25T05:58:58.412Z,14.95
2017-04-25T05:59:57.489Z,12.32
2017-04-25T06:00:56.528Z,7.60
2017-04-25T06:01:55.620Z,6.70
2017-04-25T06:02:54.579Z,9.70
2017-04-25T06:03:53.773Z,8.78
2017-04-25T06:04:52.864Z,8.07
2017-04-25T06:05:51.972Z,14.75
2017-04-25T06:06:51.080Z,15.20
2017-04-25T06:07:50.166Z,9.27
2017-04-25T06:08:49.261Z,10.07
2017-04-25T06:09:48.353Z,10.60
2017-04-25T06:10:47.340Z,11.85
2017-04-25T06:11:46.448Z,17.50
2017-04-25T06:12:45.471Z,10.08
2017-04-25T06:13:44.644Z,12.12
2017-04-25T06:14:43.760Z,13.17
2017-04-25T06:15:42.835Z,10.85
2017-04-25T06:16:41.991Z,13.97
2017-04-25T06:17:41.092Z,14.25
2017-04-25T06:18:40.227Z,13.43
2017-04-25T06:19:40.008Z,12.65
2017-04-25T06:20:39.064Z,13.45
2017-04-25T06:21:38.387Z,12.48
2017-04-25T06:22:38.228Z,10.03
2017-04-25T06:23:37.332Z,7.28
2017-04-25T06:24:36.408Z,9.13
2017-04-25T06:25:35.428Z,12.85
2017-04-25T06:26:34.555Z,11.05
2017-04-25T06:27:34.500Z,6.30
2017-04-25T06:28:34.293Z,7.67
2017-04-25T06:29:33.412Z,7.88
2017-04-25T06:30:33.232Z,5.60
2017-04-25T06:31:33.179Z,5.55
2017-04-25T06:32:32.753Z,4.97
2017-04-25T06:33:32.420Z,4.35
2017-04-25T06:34:31.531Z,5.75
2017-04-25T06:35:31.954Z,4.80
2017-04-25T06:36:31.336Z,5.12
2017-04-25T06:37:31.016Z,6.67
2017-04-25T06:38:31.460Z,5.43
2017-04-25T06:39:31.197Z,6.30
2017-04-25T06:40:31.063Z,4.20
2017-04-25T06:41:30.467Z,4.78
2017-04-25T06:42:29.509Z,4.17
2017-04-25T06:43:28.688Z,5.27
2017-04-25T06:44:27.763Z,3.78
2017-04-25T06:45:26.736Z,4.20
2017-04-25T06:46:25.796Z,3.55
2017-04-25T06:47:25.679Z,3.00
2017-04-25T06:48:24.735Z,3.83
2017-04-25T06:49:23.877Z,4.85
2017-04-25T06:50:22.962Z,3.77
2017-04-25T06:51:22.037Z,3.65
2017-04-25T06:52:21.131Z,2.92
2017-04-25T06:53:20.196Z,6.12
2017-04-25T06:54:19.228Z,2.88
2017-04-25T06:55:18.328Z,2.80
2017-04-25T06:56:18.120Z,2.88
2017-04-25T06:57:17.954Z,2.57
2017-04-25T06:58:17.001Z,2.47
2017-04-25T06:59:16.068Z,3.28
2017-04-25T07:00:15.928Z,5.17
2017-04-25T07:01:14.985Z,3.88
2017-04-25T07:02:14.142Z,2.77
2017-04-25T07:03:13.198Z,2.53
2017-04-25T07:04:12.288Z,2.37
2017-04-25T07:05:12.146Z,3.63
2017-04-25T07:06:11.203Z,2.87
2017-04-25T07:07:10.308Z,4.25
2017-04-25T07:08:09.414Z,4.63
2017-04-25T07:09:09.132Z,3.07
2017-04-25T07:10:08.153Z,2.60
2017-04-25T07:11:07.207Z,3.88
2017-04-25T07:12:06.285Z,3.93
2017-04-25T07:13:05.340Z,2.83
2017-04-25T07:14:04.467Z,7.32
2017-04-25T07:15:03.527Z,2.17
2017-04-25T07:16:03.544Z,2.15
2017-04-25T07:17:03.293Z,3.70
2017-04-25T07:18:03.004Z,4.68
2017-04-25T07:19:02.691Z,2.20
2017-04-25T07:20:02.028Z,2.67
2017-04-25T07:21:01.490Z,2.37
2017-04-25T07:22:01.087Z,2.40
2017-04-25T07:23:00.473Z,2.55
2017-04-25T07:23:59.640Z,2.45
2017-04-25T07:24:59.048Z,2.20
2017-04-25T07:25:58.169Z,2.82
2017-04-25T07:26:58.008Z,2.12
2017-04-25T07:27:57.817Z,2.63
2017-04-25T07:28:56.916Z,5.25
2017-04-25T07:29:55.982Z,1.57
2017-04-25T07:30:55.060Z,1.88
2017-04-25T07:31:54.171Z,5.02
2017-04-25T07:32:53.322Z,2.68
2017-04-25T07:33:52.435Z,2.45
2017-04-25T07:34:51.443Z,2.58
2017-04-25T07:35:50.507Z,2.78
2017-04-25T07:36:49.728Z,3.33
2017-04-25T07:37:49.628Z,4.17
2017-04-25T07:38:48.680Z,2.32
2017-04-25T07:39:47.996Z,2.17
2017-04-25T07:40:47.032Z,2.20
2017-04-25T07:41:46.050Z,2.92
2017-04-25T07:42:45.080Z,2.88
2017-04-25T07:43:44.206Z,2.27
2017-04-25T07:44:43.283Z,4.30
2017-04-25T07:45:42.452Z,2.88
2017-04-25T07:46:41.517Z,3.45
2017-04-25T07:47:41.516Z,3.13
2017-04-25T07:48:40.625Z,2.48
2017-04-25T07:49:39.752Z,4.47
2017-04-25T07:50:38.776Z,5.08
2017-04-25T07:51:37.893Z,4.27
2017-04-25T07:52:36.939Z,3.63
2017-04-25T07:53:35.999Z,3.93
2017-04-25T07:54:35.188Z,4.20
2017-04-25T07:55:34.291Z,4.30
2017-04-25T07:56:33.423Z,3.72
2017-04-25T07:57:33.048Z,2.42
2017-04-25T07:58:32.733Z,3.88
2017-04-25T07:59:32.092Z,3.23
2017-04-25T08:00:31.480Z,3.03
2017-04-25T08:01:30.932Z,5.35
2017-04-25T08:02:31.748Z,7.27
2017-04-25T08:03:31.540Z,4.37
2017-04-25T08:04:32.128Z,3.53
2017-04-25T08:05:32.126Z,3.17
2017-04-25T08:06:32.112Z,3.65
2017-04-25T08:07:31.620Z,7.27
2017-04-25T08:08:31.719Z,5.75
2017-04-25T08:09:31.468Z,4.50
2017-04-25T08:10:30.948Z,4.45
2017-04-25T08:11:30.609Z,3.58
2017-04-25T08:12:29.656Z,6.17
2017-04-25T08:13:28.783Z,4.12
2017-04-25T08:14:28.620Z,4.63
2017-04-25T08:15:27.575Z,6.20
2017-04-25T08:16:26.676Z,5.40
2017-04-25T08:17:25.853Z,3.67
2017-04-25T08:18:24.939Z,3.98
2017-04-25T08:19:24.027Z,3.88
2017-04-25T08:20:23.280Z,4.15
2017-04-25T08:21:22.375Z,5.20
2017-04-25T08:22:21.455Z,5.90
2017-04-25T08:23:20.665Z,4.67
2017-04-25T08:24:19.737Z,4.55
2017-04-25T08:25:18.884Z,8.10
2017-04-25T08:26:17.987Z,5.33
2017-04-25T08:27:17.048Z,4.77
2017-04-25T08:28:16.120Z,3.90
2017-04-25T08:29:15.270Z,4.57
2017-04-25T08:30:14.288Z,4.70
2017-04-25T08:31:13.252Z,4.78
2017-04-25T08:32:12.373Z,5.73
2017-04-25T08:33:11.399Z,3.83
2017-04-25T08:34:10.577Z,5.32
2017-04-25T08:35:10.384Z,4.35
2017-04-25T08:36:09.532Z,4.57
2017-04-25T08:37:09.376Z,3.73
2017-04-25T08:38:08.452Z,5.85
2017-04-25T08:39:07.544Z,3.57
2017-04-25T08:40:06.940Z,5.03
2017-04-25T08:41:06.002Z,6.28
2017-04-25T08:42:05.064Z,5.80
2017-04-25T08:43:04.111Z,6.28
2017-04-25T08:44:03.964Z,5.73
2017-04-25T08:45:03.554Z,5.00
2017-04-25T08:46:03.468Z,3.97
2017-04-25T08:47:03.644Z,5.90
2017-04-25T08:48:03.421Z,3.97
2017-04-25T08:49:03.060Z,9.72
2017-04-25T08:50:02.740Z,7.12
2017-04-25T08:51:02.899Z,3.43
2017-04-25T08:52:03.014Z,5.45
2017-04-25T08:53:02.956Z,3.17
2017-04-25T08:54:02.653Z,5.03
2017-04-25T08:55:02.087Z,7.00
2017-04-25T08:56:01.727Z,3.75
2017-04-25T08:57:01.403Z,4.80
2017-04-25T08:58:00.440Z,3.32
2017-04-25T08:59:01.036Z,5.80
2017-04-25T09:00:02.191Z,3.37
2017-04-25T09:01:01.917Z,3.05
2017-04-25T09:02:01.365Z,5.02
2017-04-25T09:03:00.453Z,3.72
2017-04-25T09:04:00.836Z,3.87
2017-04-25T09:05:01.072Z,4.40
2017-04-25T09:06:01.198Z,3.22
2017-04-25T09:07:01.042Z,3.48
2017-04-25T09:08:01.554Z,3.73
2017-04-25T09:09:01.788Z,3.93
2017-04-25T09:10:01.641Z,4.28
2017-04-25T09:11:01.708Z,3.37
2017-04-25T09:12:01.592Z,5.08
2017-04-25T09:13:01.052Z,3.28
2017-04-25T09:14:01.614Z,6.75
2017-04-25T09:15:01.265Z,4.35
2017-04-25T09:16:00.995Z,3.85
2017-04-25T09:17:00.022Z,3.35
2017-04-25T09:18:00.027Z,3.68
2017-04-25T09:19:00.561Z,4.45
2017-04-25T09:19:59.713Z,3.00
2017-04-25T09:20:59.581Z,3.53
2017-04-25T09:21:58.748Z,3.85
2017-04-25T09:22:57.857Z,5.45
2017-04-25T09:23:57.698Z,3.80
2017-04-25T09:24:56.797Z,5.13
2017-04-25T09:25:55.940Z,4.53
2017-04-25T09:26:55.044Z,3.57
2017-04-25T09:27:54.163Z,1.77
2017-04-25T09:28:53.174Z,3.07
2017-04-25T09:29:52.268Z,5.37
2017-04-25T09:30:51.427Z,3.90
2017-04-25T09:31:50.464Z,3.27
2017-04-25T09:32:49.536Z,3.07
2017-04-25T09:33:48.575Z,3.92
2017-04-25T09:34:47.887Z,6.83
2017-04-25T09:35:47.660Z,3.67
2017-04-25T09:36:46.763Z,3.05
2017-04-25T09:37:45.827Z,4.55
2017-04-25T09:38:44.937Z,3.12
2017-04-25T09:39:44.096Z,5.98
2017-04-25T09:40:43.168Z,4.83
2017-04-25T09:41:42.247Z,3.50
2017-04-25T09:42:41.818Z,3.20
2017-04-25T09:43:40.908Z,7.48
2017-04-25T09:44:40.005Z,6.07
2017-04-25T09:45:39.176Z,9.22
2017-04-25T09:46:38.296Z,6.38
2017-04-25T09:47:37.400Z,4.65
2017-04-25T09:48:37.284Z,4.10
2017-04-25T09:49:37.112Z,4.12
2017-04-25T09:50:36.136Z,3.95
2017-04-25T09:51:35.212Z,5.43
2017-04-25T09:52:34.366Z,10.13
2017-04-25T09:53:33.436Z,3.90
2017-04-25T09:54:32.948Z,4.37
2017-04-25T09:55:32.627Z,2.60
2017-04-25T09:56:32.098Z,4.60
2017-04-25T09:57:32.164Z,5.18
2017-04-25T09:58:31.476Z,4.07
2017-04-25T09:59:31.354Z,4.32
2017-04-25T10:00:30.799Z,5.50
2017-04-25T10:01:29.768Z,5.38
2017-04-25T10:02:28.912Z,6.23
2017-04-25T10:03:27.979Z,4.62
2017-04-25T10:04:27.774Z,5.02
2017-04-25T10:05:27.592Z,4.82
2017-04-25T10:06:26.672Z,6.08
2017-04-25T10:07:25.752Z,3.08
2017-04-25T10:08:24.824Z,4.57
2017-04-25T10:09:23.872Z,5.03
2017-04-25T10:10:23.011Z,4.98
2017-04-25T10:11:22.129Z,3.83
2017-04-25T10:12:21.195Z,3.15
2017-04-25T10:13:20.307Z,5.32
2017-04-25T10:14:20.164Z,3.00
2017-04-25T10:15:19.284Z,3.50
2017-04-25T10:16:18.317Z,2.52
2017-04-25T10:17:17.295Z,2.60
2017-04-25T10:18:16.315Z,7.18
2017-04-25T10:19:16.164Z,3.70
2017-04-25T10:20:15.167Z,4.90
2017-04-25T10:21:14.274Z,3.93
2017-04-25T10:22:14.119Z,4.98
2017-04-25T10:23:13.205Z,6.02
2017-04-25T10:24:12.341Z,3.27
2017-04-25T10:25:11.414Z,4.43
2017-04-25T10:26:10.500Z,4.85
2017-04-25T10:27:09.515Z,3.75
2017-04-25T10:28:08.424Z,14.12
2017-04-25T10:29:08.178Z,3.37
2017-04-25T10:30:07.328Z,3.25
2017-04-25T10:31:06.356Z,7.15
2017-04-25T10:32:05.431Z,7.52
2017-04-25T10:33:04.576Z,5.77
2017-04-25T10:34:03.652Z,4.72
2017-04-25T10:35:03.277Z,4.05
2017-04-25T10:36:03.692Z,3.50
2017-04-25T10:37:03.448Z,3.32
2017-04-25T10:38:03.167Z,4.40
2017-04-25T10:39:02.769Z,3.80
2017-04-25T10:40:02.003Z,3.83
2017-04-25T10:41:01.767Z,3.40
2017-04-25T10:42:01.619Z,9.22
2017-04-25T10:43:01.189Z,3.52
2017-04-25T10:44:01.061Z,3.55
2017-04-25T10:45:01.540Z,2.70
2017-04-25T10:46:01.635Z,4.25
2017-04-25T10:47:00.928Z,3.58
2017-04-25T10:47:59.989Z,4.02
2017-04-25T10:48:59.844Z,6.48
2017-04-25T10:49:58.926Z,5.12
2017-04-25T10:50:57.995Z,3.58
2017-04-25T10:51:57.935Z,2.70
2017-04-25T10:52:57.039Z,2.28
2017-04-25T10:53:56.682Z,2.48
2017-04-25T10:54:55.748Z,3.52
2017-04-25T10:55:55.597Z,3.57
2017-04-25T10:56:54.640Z,3.57
2017-04-25T10:57:53.747Z,2.03
2017-04-25T10:58:52.888Z,2.75
2017-04-25T10:59:51.885Z,3.00
2017-04-25T11:00:50.872Z,3.42
2017-04-25T11:01:49.992Z,2.42
2017-04-25T11:02:49.824Z,3.93
2017-04-25T11:03:48.968Z,4.50
2017-04-25T11:04:48.860Z,4.53
2017-04-25T11:05:48.265Z,5.00
2017-04-25T11:06:48.059Z,4.10
2017-04-25T11:07:47.872Z,2.98
2017-04-25T11:08:46.999Z,4.53
2017-04-25T11:09:46.060Z,5.40
2017-04-25T11:10:45.148Z,4.20
2017-04-25T11:11:44.975Z,4.60
2017-04-25T11:12:44.020Z,5.37
2017-04-25T11:13:43.119Z,6.07
2017-04-25T11:14:42.174Z,7.02
2017-04-25T11:15:41.220Z,7.65
2017-04-25T11:16:40.352Z,3.97
2017-04-25T11:17:39.491Z,4.45
2017-04-25T11:18:38.603Z,6.73
2017-04-25T11:19:38.542Z,4.25
2017-04-25T11:20:37.704Z,5.22
2017-04-25T11:21:36.732Z,3.33
2017-04-25T11:22:35.880Z,2.27
2017-04-25T11:23:34.975Z,3.43
2017-04-25T11:24:34.104Z,8.22
2017-04-25T11:25:33.967Z,4.55
2017-04-25T11:26:34.311Z,6.27
2017-04-25T11:27:33.968Z,3.07
2017-04-25T11:28:33.949Z,4.62
2017-04-25T11:29:33.864Z,2.78
2017-04-25T11:30:33.571Z,2.73
2017-04-25T11:31:33.204Z,7.05
2017-04-25T11:32:32.707Z,4.72
2017-04-25T11:33:33.318Z,3.13
2017-04-25T11:34:32.640Z,2.28
2017-04-25T11:35:32.751Z,3.25
2017-04-25T11:36:32.322Z,2.45
2017-04-25T11:37:32.156Z,6.15
2017-04-25T11:38:32.488Z,13.53
2017-04-25T11:39:32.655Z,5.77
2017-04-25T11:40:32.800Z,6.77
2017-04-25T11:41:32.800Z,3.23
2017-04-25T11:42:32.713Z,3.22
2017-04-25T11:43:33.295Z,1.92
2017-04-25T11:44:33.159Z,5.37
2017-04-25T11:45:32.982Z,3.12
2017-04-25T11:46:32.716Z,3.17
2017-04-25T11:47:32.150Z,6.63
2017-04-25T11:48:31.549Z,2.85
2017-04-25T11:49:31.195Z,2.90
2017-04-25T11:50:31.012Z,4.10
2017-04-25T11:51:30.735Z,4.62
2017-04-25T11:52:30.971Z,2.47
2017-04-25T11:53:31.543Z,3.68
2017-04-25T11:54:32.023Z,9.27
2017-04-25T11:55:32.170Z,2.27
2017-04-25T11:56:32.647Z,2.92
2017-04-25T11:57:32.842Z,5.85
2017-04-25T11:58:32.709Z,2.92
2017-04-25T11:59:32.943Z,3.62
2017-04-25T12:00:32.926Z,4.80
2017-04-25T12:01:33.300Z,2.57
2017-04-25T12:02:32.811Z,7.60
2017-04-25T12:03:32.467Z,5.67
2017-04-25T12:04:32.147Z,3.62
2017-04-25T12:05:31.647Z,4.15
2017-04-25T12:06:31.100Z,3.58
2017-04-25T12:07:30.754Z,4.88
2017-04-25T12:08:29.904Z,4.15
2017-04-25T12:09:28.999Z,6.13
2017-04-25T12:10:28.035Z,2.72
2017-04-25T12:11:27.264Z,5.33
2017-04-25T12:12:26.367Z,6.63
2017-04-25T12:13:26.273Z,5.42
2017-04-25T12:14:26.236Z,3.02
2017-04-25T12:15:25.388Z,4.50
2017-04-25T12:16:24.568Z,4.97
2017-04-25T12:17:23.772Z,2.90
2017-04-25T12:18:23.628Z,4.37
2017-04-25T12:19:23.463Z,2.72
2017-04-25T12:20:23.415Z,2.47
2017-04-25T12:21:23.259Z,3.72
2017-04-25T12:22:22.355Z,2.58
2017-04-25T12:23:21.515Z,3.73
2017-04-25T12:24:20.608Z,4.17
2017-04-25T12:25:19.727Z,5.38
2017-04-25T12:26:19.028Z,2.77
2017-04-25T12:27:18.152Z,4.65
2017-04-25T12:28:17.276Z,3.38
2017-04-25T12:29:16.368Z,5.53
2017-04-25T12:30:15.472Z,4.05
2017-04-25T12:31:14.616Z,10.18
2017-04-25T12:32:13.739Z,6.62
2017-04-25T12:33:12.848Z,4.95
2017-04-25T12:34:12.692Z,11.62
2017-04-25T12:35:11.849Z,5.83
2017-04-25T12:36:10.976Z,4.33
2017-04-25T12:37:10.025Z,8.55
2017-04-25T12:38:09.187Z,13.38
2017-04-25T12:39:08.219Z,10.15
2017-04-25T12:40:07.311Z,4.88
2017-04-25T12:41:06.423Z,11.77
2017-04-25T12:42:05.663Z,5.10
2017-04-25T12:43:05.260Z,6.12
2017-04-25T12:44:04.620Z,7.42
2017-04-25T12:45:03.787Z,4.77
2017-04-25T12:46:03.384Z,4.55
2017-04-25T12:47:02.733Z,3.47
2017-04-25T12:48:02.323Z,5.55
2017-04-25T12:49:02.445Z,10.05
2017-04-25T12:50:02.389Z,6.40
2017-04-25T12:51:02.060Z,6.22
2017-04-25T12:52:01.820Z,3.77
2017-04-25T12:53:01.551Z,6.87
2017-04-25T12:54:01.316Z,4.87
2017-04-25T12:55:01.229Z,3.40
2017-04-25T12:56:00.980Z,5.80
2017-04-25T12:57:00.027Z,3.03
2017-04-25T12:57:59.112Z,7.27
2017-04-25T12:58:58.199Z,3.90
2017-04-25T12:59:57.261Z,4.67
2017-04-25T13:00:56.895Z,3.57